Time;durP1;ratioP1;P1;durP2;ratioP2;P2;SDS_P1;SDS_P2;PMS_P1;PMS_P2;Temp;Humidity;BMP_temperature;BMP_pressure;BME280_temperature;BME280_humidity;BME280_pressure;Samples;Min_cycle;Max_cycle;Signal;HPM_P1;HPM_P2
2021/09/02 00:00:19;;;;;;;10.57;6.03;;;12.90;99.90;;;11.57;100.00;102498.47;5048361;28;20468;-77
2021/09/02 00:02:45;;;;;;;15.80;6.95;;;12.80;99.90;;;11.53;100.00;102494.16;5041194;28;20043;-77
2021/09/02 00:05:11;;;;;;;16.88;6.57;;;12.80;99.90;;;11.49;100.00;102497.78;5033906;28;20055;-77
2021/09/02 00:07:37;;;;;;;11.50;6.10;;;12.80;99.90;;;11.49;100.00;102492.50;5042127;28;20029;-77
2021/09/02 00:10:04;;;;;;;13.48;6.32;;;12.80;99.90;;;11.48;100.00;102496.03;5046667;28;20021;-77
2021/09/02 00:12:30;;;;;;;12.65;7.07;;;12.70;99.90;;;11.38;100.00;102492.75;5041673;28;20035;-77
2021/09/02 00:14:56;;;;;;;19.45;6.32;;;12.70;99.90;;;11.38;100.00;102489.22;5046384;28;20028;-77
2021/09/02 00:17:22;;;;;;;10.43;6.15;;;12.70;99.90;;;11.34;100.00;102490.19;5049608;28;20370;-77
2021/09/02 00:19:49;;;;;;;11.35;6.40;;;12.60;99.90;;;11.41;100.00;102489.16;5047237;28;20471;-77
2021/09/02 00:22:16;;;;;;;13.65;6.40;;;12.80;99.90;;;11.55;100.00;102507.31;5041618;28;20024;-77
2021/09/02 00:24:42;;;;;;;19.17;7.20;;;12.80;99.90;;;11.64;100.00;102510.63;5023210;28;20044;-77
2021/09/02 00:27:08;;;;;;;17.85;7.10;;;13.00;99.90;;;11.77;100.00;102524.41;5030224;28;20100;-77
2021/09/02 00:29:33;;;;;;;18.92;8.82;;;13.00;99.90;;;11.72;100.00;102559.72;5023660;28;20029;-77
2021/09/02 00:31:59;;;;;;;27.75;8.90;;;13.00;99.90;;;11.73;100.00;102590.47;5030286;28;20100;-77
2021/09/02 00:34:26;;;;;;;15.60;8.65;;;12.90;99.90;;;11.67;100.00;102587.06;5049495;28;20028;-77
2021/09/02 00:36:52;;;;;;;23.00;9.32;;;12.90;99.90;;;11.76;100.00;102630.00;5040402;28;20140;-77
2021/09/02 00:39:18;;;;;;;18.83;9.30;;;13.00;99.90;;;11.74;100.00;102664.34;5039853;28;20029;-77
2021/09/02 00:41:44;;;;;;;15.75;9.15;;;13.00;99.90;;;11.74;100.00;102697.78;5049857;28;20050;-77
2021/09/02 00:44:10;;;;;;;21.10;9.55;;;13.00;99.90;;;11.79;100.00;102746.06;5023707;28;20024;-78
2021/09/02 00:46:36;;;;;;;18.00;9.32;;;13.10;99.90;;;11.85;100.00;102770.56;5041382;28;21855;-77
2021/09/02 00:49:02;;;;;;;17.90;8.77;;;13.20;99.90;;;11.94;100.00;102817.06;5031120;28;20021;-77
2021/09/02 00:51:28;;;;;;;21.88;9.73;;;13.20;99.90;;;12.05;100.00;102843.28;5031373;28;20507;-78
2021/09/02 00:53:57;;;;;;;22.58;9.90;;;13.30;99.90;;;12.12;100.00;102855.47;5051230;28;20115;-77
2021/09/02 00:56:27;;;;;;;24.00;11.20;;;13.40;99.90;;;12.19;100.00;102887.91;5048961;28;20082;-77
2021/09/02 00:58:53;;;;;;;19.85;10.30;;;13.40;99.90;;;12.11;100.00;102941.72;5036589;28;20085;-77
2021/09/02 01:01:21;;;;;;;24.30;10.05;;;13.30;99.90;;;11.97;100.00;102954.31;5052085;28;20025;-77
2021/09/02 01:03:47;;;;;;;21.23;9.57;;;13.20;99.90;;;11.87;100.00;102953.56;5048439;28;20032;-77
2021/09/02 01:06:17;;;;;;;23.02;9.55;;;13.20;99.90;;;11.90;100.00;102961.47;5048896;28;20484;-77
2021/09/02 01:08:46;;;;;;;22.15;9.93;;;13.20;99.90;;;11.88;100.00;102986.16;5037286;28;20032;-77
2021/09/02 01:11:13;;;;;;;20.30;11.07;;;13.20;99.90;;;11.99;100.00;103028.22;5035022;28;20476;-77
2021/09/02 01:13:39;;;;;;;23.58;10.30;;;13.30;99.90;;;12.09;100.00;103054.47;5044315;28;20071;-77
2021/09/02 01:16:05;;;;;;;23.08;10.70;;;13.40;99.90;;;12.17;100.00;103041.13;5058910;28;20029;-77
2021/09/02 01:18:31;;;;;;;25.35;12.85;;;13.40;99.90;;;12.23;100.00;103093.84;5054240;28;20093;-77
2021/09/02 01:20:59;;;;;;;26.10;11.95;;;13.50;99.90;;;12.29;100.00;103100.81;5019345;28;20028;-77
2021/09/02 01:23:25;;;;;;;23.73;13.05;;;13.50;99.90;;;12.34;100.00;103116.59;5044725;28;20037;-77
2021/09/02 01:25:51;;;;;;;30.27;13.55;;;13.60;99.90;;;12.32;100.00;103141.25;5033790;28;20028;-77
2021/09/02 01:28:17;;;;;;;29.58;13.73;;;13.60;99.90;;;12.46;100.00;103111.09;5050052;28;20031;-77
2021/09/02 01:30:44;;;;;;;29.85;14.38;;;13.60;99.90;;;12.41;100.00;103116.44;5054550;28;21443;-77
2021/09/02 01:33:17;;;;;;;26.70;13.68;;;13.60;99.90;;;12.38;100.00;103142.06;5026435;28;20058;-77
2021/09/02 01:35:43;;;;;;;34.40;13.35;;;13.60;99.90;;;12.29;100.00;103119.31;5048472;28;20139;-77
2021/09/02 01:38:11;;;;;;;33.83;14.63;;;13.50;99.90;;;12.21;100.00;103169.59;5035367;28;20037;-77
2021/09/02 01:40:43;;;;;;;31.25;13.70;;;13.40;99.90;;;12.08;100.00;103187.38;5032182;28;20066;-77
2021/09/02 01:43:13;;;;;;;37.70;12.60;;;13.30;99.90;;;12.02;100.00;103194.53;5050564;28;20046;-77
2021/09/02 01:45:39;;;;;;;26.65;12.75;;;13.30;99.90;;;11.97;100.00;103231.56;5016934;28;20035;-77
2021/09/02 01:48:06;;;;;;;30.60;12.65;;;13.20;99.90;;;11.90;100.00;103229.91;5033821;28;20507;-77
2021/09/02 01:50:40;;;;;;;24.67;12.40;;;13.20;99.90;;;11.90;100.00;103253.66;5054363;28;20297;-77
2021/09/02 01:53:14;;;;;;;29.55;13.57;;;13.20;99.90;;;11.90;100.00;103264.22;5051950;28;20427;-77
2021/09/02 01:55:42;;;;;;;44.28;14.93;;;13.20;99.90;;;11.95;100.00;103306.41;5042756;28;20021;-78
2021/09/02 01:58:08;;;;;;;32.72;14.85;;;13.30;99.90;;;12.11;100.00;103324.66;5044404;28;20042;-77
2021/09/02 02:00:36;;;;;;;33.80;14.80;;;13.30;99.90;;;12.12;100.00;103309.72;5043875;28;20427;-77
2021/09/02 02:03:02;;;;;;;33.22;14.23;;;13.40;99.90;;;12.14;100.00;103357.22;5041717;28;20402;-77
2021/09/02 02:05:31;;;;;;;34.00;14.25;;;13.40;99.90;;;12.06;100.00;103315.06;5042219;28;20013;-77
2021/09/02 02:07:58;;;;;;;35.80;14.45;;;13.30;99.90;;;12.04;100.00;103341.47;5051221;28;20526;-77
2021/09/02 02:10:28;;;;;;;36.50;15.68;;;13.30;99.90;;;12.06;100.00;103424.22;5024671;28;20025;-77
2021/09/02 02:12:57;;;;;;;42.70;15.38;;;13.30;99.90;;;12.03;100.00;103397.84;5053070;28;20032;-77
2021/09/02 02:15:25;;;;;;;35.10;15.85;;;13.30;99.90;;;12.02;100.00;103408.41;5053681;28;20043;-77
2021/09/02 02:17:51;;;;;;;38.72;15.75;;;13.20;99.90;;;11.94;100.00;103416.41;5050219;28;20066;-77
2021/09/02 02:20:18;;;;;;;39.25;16.40;;;13.20;99.90;;;11.92;100.00;103434.03;5033334;28;20099;-77
2021/09/02 02:22:45;;;;;;;31.10;15.02;;;13.20;99.90;;;11.86;100.00;103442.84;5053172;28;20025;-77
2021/09/02 02:25:13;;;;;;;44.13;16.27;;;13.10;99.90;;;11.77;100.00;103447.31;5055089;28;20071;-77
2021/09/02 02:27:41;;;;;;;38.00;16.00;;;13.00;99.90;;;11.69;100.00;103398.13;5035308;28;20476;-77
2021/09/02 02:30:14;;;;;;;39.10;16.00;;;13.00;99.90;;;11.61;100.00;103422.81;5050538;28;20059;-77
2021/09/02 02:32:40;;;;;;;39.05;14.90;;;12.90;99.90;;;11.59;100.00;103443.06;5025743;28;20550;-77
2021/09/02 02:35:09;;;;;;;40.15;17.08;;;12.80;99.90;;;11.54;100.00;103498.53;5014829;28;20558;-77
2021/09/02 02:37:35;;;;;;;37.80;16.20;;;12.80;99.90;;;11.63;100.00;103494.94;5042251;28;20078;-77
2021/09/02 02:40:02;;;;;;;41.90;15.90;;;12.90;99.90;;;11.64;100.00;103487.03;5039946;28;20040;-77
2021/09/02 02:42:28;;;;;;;42.90;16.38;;;12.90;99.90;;;11.67;100.00;103534.50;5036515;28;20039;-77
2021/09/02 02:44:54;;;;;;;50.83;17.85;;;13.00;99.90;;;11.81;100.00;103493.94;5032436;28;20551;-77
2021/09/02 02:47:20;;;;;;;49.50;19.15;;;13.10;99.90;;;12.00;100.00;103518.47;5039398;28;20392;-77
2021/09/02 02:49:46;;;;;;;56.15;19.55;;;13.30;99.90;;;12.13;100.00;103572.94;5048403;28;20026;-76
2021/09/02 02:52:12;;;;;;;61.38;20.92;;;14.40;99.90;;;12.20;100.00;103586.97;5050709;28;20023;-78
2021/09/02 02:54:38;;;;;;;57.25;21.20;;;13.40;99.90;;;12.21;100.00;103618.66;5050830;28;20025;-76
2021/09/02 02:57:05;;;;;;;53.63;20.35;;;13.40;99.90;;;12.18;100.00;103612.53;5054647;28;20031;-77
2021/09/02 02:59:31;;;;;;;50.13;20.85;;;13.40;99.90;;;12.19;100.00;103624.84;5053517;28;20591;-77
2021/09/02 03:01:57;;;;;;;47.50;20.95;;;13.40;99.90;;;12.11;100.00;103569.44;5042649;28;20536;-77
2021/09/02 03:04:23;;;;;;;59.55;21.00;;;13.30;99.90;;;12.05;100.00;103569.47;5041484;28;20036;-77
2021/09/02 03:06:49;;;;;;;54.03;19.67;;;14.10;99.90;;;12.02;100.00;103562.44;5041626;28;20427;-77
2021/09/02 03:09:15;;;;;;;49.83;20.00;;;13.30;99.90;;;12.03;100.00;103597.66;5041674;28;20026;-77
2021/09/02 03:11:41;;;;;;;52.90;19.65;;;13.30;99.90;;;11.98;100.00;103550.16;5037911;28;20036;-77
2021/09/02 03:14:07;;;;;;;58.33;19.00;;;13.20;99.90;;;11.95;100.00;103584.53;5034026;28;20028;-76
2021/09/02 03:16:33;;;;;;;51.60;18.38;;;13.20;99.90;;;11.89;100.00;103564.31;5051316;28;20032;-77
2021/09/02 03:18:59;;;;;;;55.42;20.02;;;13.20;99.90;;;11.95;100.00;103558.13;5048422;28;20080;-77
2021/09/02 03:21:25;;;;;;;51.53;19.13;;;13.20;99.90;;;11.95;100.00;103546.69;5050961;28;20025;-77
2021/09/02 03:23:51;;;;;;;56.65;19.63;;;13.20;99.90;;;11.94;100.00;103592.44;5064728;28;20033;-77
2021/09/02 03:26:20;;;;;;;60.33;17.85;;;13.10;99.90;;;11.90;100.00;103644.41;5033530;28;20056;-77
2021/09/02 03:28:46;;;;;;;53.03;18.35;;;13.20;99.90;;;11.90;100.00;103695.44;5048787;28;20102;-77
2021/09/02 03:31:12;;;;;;;52.97;17.13;;;13.20;99.90;;;11.91;100.00;103714.81;5034256;28;20028;-77
2021/09/02 03:33:38;;;;;;;48.55;17.55;;;13.20;99.90;;;11.87;100.00;103699.81;5041471;28;20554;-77
2021/09/02 03:36:05;;;;;;;47.13;16.65;;;13.20;99.90;;;11.92;100.00;103737.66;5050341;28;20476;-77
2021/09/02 03:38:31;;;;;;;51.13;15.85;;;13.20;99.90;;;11.88;100.00;103757.09;5026606;28;20028;-77
2021/09/02 03:40:57;;;;;;;52.75;17.10;;;13.20;99.90;;;12.07;100.00;103764.03;5052149;28;20361;-77
2021/09/02 03:43:23;;;;;;;48.08;16.35;;;13.30;99.90;;;12.18;100.00;103811.53;5029369;28;20035;-77
2021/09/02 03:45:49;;;;;;;64.05;18.45;;;13.40;99.90;;;12.14;100.00;103837.94;5033058;28;20377;-77
2021/09/02 03:48:15;;;;;;;45.05;17.25;;;13.40;99.90;;;12.08;100.00;103804.53;5050251;28;20029;-77
2021/09/02 03:50:42;;;;;;;54.53;17.80;;;13.30;99.90;;;11.98;100.00;103837.13;5023851;28;20555;-77
2021/09/02 03:53:08;;;;;;;43.83;17.05;;;13.20;99.90;;;11.93;100.00;103845.06;5041712;28;20032;-77
2021/09/02 03:55:34;;;;;;;39.78;15.13;;;13.20;99.90;;;12.04;100.00;103889.94;5048546;28;21246;-77
2021/09/02 03:58:00;;;;;;;51.75;16.80;;;13.40;99.90;;;12.22;100.00;103928.63;5048564;28;20020;-77
2021/09/02 04:00:29;;;;;;;58.15;15.75;;;13.50;99.90;;;12.35;100.00;103933.00;5040530;28;20063;-77
2021/09/02 04:02:54;;;;;;;47.88;15.65;;;13.60;99.90;;;12.42;100.00;103947.06;5048676;28;20024;-77
2021/09/02 04:05:20;;;;;;;44.60;14.43;;;13.70;99.90;;;12.48;100.00;103998.16;5050113;28;20024;-77
2021/09/02 04:07:46;;;;;;;54.67;15.90;;;13.70;99.90;;;12.49;100.00;103962.91;5040380;28;20025;-77
2021/09/02 04:10:12;;;;;;;45.63;14.80;;;13.70;99.90;;;12.49;100.00;103883.63;5034562;28;20040;-77
2021/09/02 04:12:38;;;;;;;39.80;14.55;;;13.70;99.90;;;12.54;100.00;103960.25;5041216;28;20506;-77
2021/09/02 04:15:05;;;;;;;49.20;14.55;;;13.70;99.90;;;12.54;100.00;103999.03;5031038;28;20387;-77
2021/09/02 04:17:31;;;;;;;39.45;14.10;;;13.80;99.90;;;12.55;100.00;104004.31;5050567;28;20028;-77
2021/09/02 04:19:58;;;;;;;48.35;13.77;;;13.80;99.90;;;12.52;100.00;104010.47;5047919;28;20036;-77
2021/09/02 04:22:24;;;;;;;38.80;12.93;;;13.80;99.90;;;12.49;100.00;104076.56;5052526;28;20039;-78
2021/09/02 04:24:50;;;;;;;39.05;13.07;;;13.80;99.90;;;12.49;100.00;104097.72;5025684;28;20026;-77
2021/09/02 04:27:17;;;;;;;41.25;14.88;;;13.70;99.90;;;12.41;100.00;104078.31;5038104;28;20476;-77
2021/09/02 04:29:44;;;;;;;45.97;16.33;;;13.70;99.90;;;12.40;100.00;103993.78;5048537;28;20028;-77
2021/09/02 04:32:10;;;;;;;39.10;15.70;;;13.70;99.90;;;12.29;100.00;104073.94;5017446;28;20469;-77
2021/09/02 04:34:38;;;;;;;45.10;15.13;;;13.50;99.90;;;12.15;100.00;104095.97;5038650;28;20033;-77
2021/09/02 04:37:06;;;;;;;40.28;14.70;;;13.40;99.90;;;12.08;100.00;104106.50;5032936;28;20032;-77
2021/09/02 04:39:32;;;;;;;39.35;12.57;;;13.40;99.90;;;12.05;100.00;103908.44;5040414;28;20428;-77
2021/09/02 04:41:58;;;;;;;35.78;12.68;;;13.40;99.90;;;12.10;100.00;103962.13;5056531;28;20107;-77
2021/09/02 04:44:24;;;;;;;37.97;12.63;;;13.40;99.90;;;12.05;100.00;104007.88;5047454;28;20025;-77
2021/09/02 04:46:50;;;;;;;42.30;11.95;;;13.40;99.90;;;12.08;100.00;103876.72;5025987;28;20035;-77
2021/09/02 04:49:16;;;;;;;32.13;11.43;;;13.40;99.90;;;12.16;100.00;103941.84;5035338;28;20028;-77
2021/09/02 04:51:42;;;;;;;36.15;10.82;;;13.50;99.90;;;12.16;100.00;103963.88;5034805;28;20391;-77
2021/09/02 04:54:09;;;;;;;32.50;11.65;;;13.40;99.90;;;12.11;100.00;103973.56;5053256;28;20108;-77
2021/09/02 04:56:35;;;;;;;29.73;11.10;;;13.50;99.90;;;12.11;100.00;103966.50;5042732;28;20033;-77
2021/09/02 04:59:01;;;;;;;32.50;10.77;;;13.40;99.90;;;12.09;100.00;104004.38;5041146;28;20090;-77
2021/09/02 05:01:27;;;;;;;28.42;10.80;;;13.40;99.90;;;12.05;100.00;103971.81;5053285;28;20383;-77
2021/09/02 05:03:53;;;;;;;40.28;11.63;;;13.40;99.90;;;12.14;100.00;104026.41;5042323;28;20028;-77
2021/09/02 05:06:19;;;;;;;31.35;10.63;;;13.50;99.90;;;12.22;100.00;104042.22;5016550;28;20041;-77
2021/09/02 05:08:45;;;;;;;24.35;9.95;;;13.60;99.90;;;12.33;100.00;104051.03;5036450;28;20507;-77
2021/09/02 05:11:11;;;;;;;27.45;10.65;;;13.70;99.90;;;12.42;100.00;104098.59;5028351;28;20033;-77
2021/09/02 05:13:37;;;;;;;28.55;9.90;;;13.80;99.90;;;12.55;100.00;104117.06;5052824;28;20392;-77
2021/09/02 05:16:03;;;;;;;29.73;10.98;;;13.80;99.90;;;12.55;100.00;104072.13;5053059;28;20497;-77
2021/09/02 05:18:29;;;;;;;29.05;10.68;;;13.90;99.90;;;12.56;100.00;104044.84;5020002;28;20063;-77
2021/09/02 05:20:55;;;;;;;26.10;10.13;;;13.80;99.90;;;12.47;100.00;104106.53;5037714;28;20102;-77
2021/09/02 05:23:21;;;;;;;34.28;10.90;;;13.80;99.90;;;12.46;100.00;104152.31;5020967;28;20037;-77
2021/09/02 05:25:47;;;;;;;30.98;11.02;;;13.80;99.90;;;12.49;100.00;104158.50;5025211;28;20040;-77
2021/09/02 05:28:13;;;;;;;31.85;10.35;;;13.80;99.90;;;12.49;100.00;104211.38;5044102;28;20036;-77
2021/09/02 05:30:39;;;;;;;35.97;11.18;;;13.90;99.90;;;12.56;100.00;104221.94;5055537;28;20035;-77
2021/09/02 05:33:05;;;;;;;27.88;9.55;;;13.80;99.90;;;12.54;100.00;104237.81;5051055;28;20033;-77
2021/09/02 05:35:31;;;;;;;22.85;9.70;;;13.90;99.90;;;12.62;100.00;104270.41;5050603;28;20029;-77
2021/09/02 05:37:57;;;;;;;32.70;9.13;;;14.10;99.90;;;13.02;100.00;104349.78;5052091;28;20078;-77
2021/09/02 05:40:23;;;;;;;16.67;8.07;;;14.50;99.90;;;13.33;100.00;104341.91;5036782;28;20048;-77
2021/09/02 05:42:49;;;;;;;25.35;7.68;;;14.90;99.90;;;13.56;100.00;104386.88;5043628;28;20086;-77
2021/09/02 05:45:15;;;;;;;22.45;6.53;;;15.00;99.90;;;13.55;100.00;104371.88;5024827;28;20025;-79
2021/09/02 05:47:41;;;;;;;23.17;6.63;;;15.10;99.90;;;13.70;100.00;104308.31;5044266;28;20381;-78
2021/09/02 05:50:08;;;;;;;19.90;6.30;;;15.20;99.90;;;13.79;100.00;104291.50;5047873;28;20037;-78
2021/09/02 05:52:34;;;;;;;20.23;6.95;;;15.20;99.90;;;13.74;100.00;104275.63;5057243;28;20120;-77
2021/09/02 05:55:00;;;;;;;14.68;5.68;;;15.30;99.90;;;13.85;100.00;104275.59;5036051;28;20092;-77
2021/09/02 05:57:26;;;;;;;19.58;5.20;;;15.30;99.90;;;13.77;100.00;104266.78;5034686;28;20380;-78
2021/09/02 05:59:53;;;;;;;15.63;5.32;;;15.20;99.90;;;13.82;100.00;104264.09;5032570;28;20040;-77
2021/09/02 06:02:19;;;;;;;22.08;5.32;;;15.20;99.90;;;13.93;100.00;104278.19;5037149;28;20027;-77
2021/09/02 06:04:45;;;;;;;19.00;5.57;;;15.30;99.90;;;14.04;100.00;104276.41;5031254;28;20027;-77
2021/09/02 06:07:11;;;;;;;15.80;5.85;;;15.40;99.90;;;14.20;100.00;104287.78;5045165;28;20420;-77
2021/09/02 06:09:37;;;;;;;19.75;5.63;;;15.60;99.90;;;14.33;100.00;104283.31;5027014;28;20032;-77
2021/09/02 06:12:04;;;;;;;22.83;5.47;;;15.70;99.90;;;14.36;100.00;104276.22;5047968;28;20033;-77
2021/09/02 06:14:30;;;;;;;16.45;5.57;;;15.70;99.90;;;14.25;100.00;104246.22;5035627;28;20037;-78
2021/09/02 06:16:56;;;;;;;12.70;4.90;;;15.60;99.90;;;14.08;100.00;104219.84;5045150;28;20047;-78
2021/09/02 06:19:22;;;;;;;18.75;5.20;;;15.50;99.90;;;13.91;100.00;104201.38;5053913;28;20086;-77
2021/09/02 06:21:48;;;;;;;12.85;5.20;;;15.30;99.90;;;13.93;100.00;104210.22;5035598;28;20020;-78
2021/09/02 06:24:14;;;;;;;23.63;5.85;;;15.40;99.90;;;14.13;100.00;104243.66;5027117;28;20033;-77
2021/09/02 06:26:40;;;;;;;20.52;5.80;;;15.70;99.90;;;14.49;100.00;104279.69;5047540;28;20048;-77
2021/09/02 06:29:06;;;;;;;23.65;5.47;;;15.80;99.90;;;14.58;100.00;104268.16;5050956;28;20067;-77
2021/09/02 06:31:32;;;;;;;20.52;5.60;;;16.00;99.90;;;14.74;100.00;104276.88;5034762;28;20021;-77
2021/09/02 06:33:58;;;;;;;17.65;5.57;;;16.00;99.90;;;14.58;100.00;104231.03;5042768;28;20118;-77
2021/09/02 06:36:24;;;;;;;22.23;5.40;;;15.90;99.90;;;14.52;100.00;104231.03;5043478;28;20365;-77
2021/09/02 06:38:53;;;;;;;17.17;5.80;;;15.90;99.90;;;14.61;100.00;104232.78;5033335;28;20040;-77
2021/09/02 06:41:19;;;;;;;19.35;5.32;;;16.00;99.90;;;14.70;100.00;104251.25;5050281;28;20093;-77
2021/09/02 06:43:45;;;;;;;17.85;5.78;;;16.00;99.90;;;14.57;100.00;104222.16;5033647;28;20032;-77
2021/09/02 06:46:11;;;;;;;14.77;5.38;;;15.90;99.90;;;14.57;100.00;104219.53;5044329;28;20112;-77
2021/09/02 06:48:37;;;;;;;19.23;5.55;;;15.80;99.90;;;14.37;100.00;104189.59;5023396;28;20029;-77
2021/09/02 06:51:03;;;;;;;20.23;7.15;;;15.70;99.90;;;14.25;100.00;104197.63;5033779;28;20021;-77
2021/09/02 06:53:29;;;;;;;18.98;6.38;;;15.60;99.90;;;14.22;100.00;104184.41;5037747;28;20025;-77
2021/09/02 06:55:55;;;;;;;19.35;7.05;;;15.50;99.90;;;14.21;100.00;104178.25;5049015;28;20044;-77
2021/09/02 06:58:21;;;;;;;27.05;6.95;;;15.60;99.90;;;14.44;100.00;104196.63;5052051;28;20024;-77
2021/09/02 07:00:47;;;;;;;18.77;6.00;;;16.00;99.90;;;14.94;100.00;104256.34;5024315;28;20025;-77
2021/09/02 07:03:13;;;;;;;13.55;5.35;;;16.50;99.90;;;15.84;98.60;104340.47;5009567;28;20039;-77
2021/09/02 07:05:39;;;;;;;21.75;5.65;;;17.40;99.90;;;16.36;92.55;104330.06;5043457;28;20025;-77
2021/09/02 07:08:05;;;;;;;18.35;5.10;;;17.50;99.90;;;16.35;93.72;104333.63;5031448;28;20440;-77
2021/09/02 07:10:31;;;;;;;15.63;5.28;;;18.00;99.90;;;16.91;90.83;104376.31;5034933;28;20040;-78
2021/09/02 07:12:57;;;;;;;17.35;5.30;;;18.00;99.90;;;16.45;91.44;104291.81;5052986;28;20028;-78
2021/09/02 07:15:23;;;;;;;20.45;4.68;;;17.70;99.90;;;16.00;95.09;104222.44;5042016;28;20021;-77
2021/09/02 07:17:49;;;;;;;16.55;5.15;;;17.40;99.90;;;15.68;95.65;104188.28;5035785;28;20027;-77
2021/09/02 07:20:15;;;;;;;15.50;5.00;;;17.10;99.90;;;15.48;96.96;104177.91;5043698;28;20042;-77
2021/09/02 07:22:41;;;;;;;12.23;4.57;;;16.80;99.90;;;15.29;97.46;104151.59;5042797;28;20469;-77
2021/09/02 07:25:08;;;;;;;16.45;5.45;;;16.70;99.90;;;15.33;98.35;104158.66;5050015;28;20339;-77
2021/09/02 07:27:34;;;;;;;17.77;5.20;;;16.70;99.90;;;15.44;98.87;104173.53;5050795;28;20062;-77
2021/09/02 07:30:00;;;;;;;16.27;4.95;;;16.90;99.90;;;15.84;96.71;104219.09;5034225;28;20040;-77
2021/09/02 07:32:26;;;;;;;12.52;5.13;;;17.50;99.90;;;17.05;93.04;104314.84;5031004;28;20021;-77
2021/09/02 07:34:52;;;;;;;16.55;5.05;;;18.50;99.90;;;17.68;86.52;104315.47;5038330;28;20040;-77
2021/09/02 07:37:20;;;;;;;17.42;4.55;;;18.90;99.90;;;17.66;84.97;104307.50;5039556;28;20048;-78
2021/09/02 07:39:46;;;;;;;13.00;3.97;;;19.00;99.90;;;18.20;84.27;104373.09;5032538;28;22652;-77
2021/09/02 07:42:13;;;;;;;14.63;4.45;;;19.70;99.90;;;18.55;82.10;104336.75;5037968;28;20036;-77
2021/09/02 07:44:39;;;;;;;16.42;4.15;;;20.20;99.90;;;18.97;78.69;104350.03;5040246;28;20025;-77
2021/09/02 07:47:05;;;;;;;14.38;4.07;;;20.30;99.90;;;18.82;79.15;104308.56;5056735;28;20127;-77
2021/09/02 07:49:31;;;;;;;14.20;4.35;;;20.30;99.90;;;18.79;80.02;104281.91;5033915;28;20040;-77
2021/09/02 07:51:57;;;;;;;11.52;4.50;;;20.10;99.90;;;18.51;81.61;104239.00;5041704;28;20307;-77
2021/09/02 07:54:23;;;;;;;15.45;4.50;;;20.40;99.90;;;19.18;77.68;104305.84;5036711;28;20027;-77
2021/09/02 07:56:50;;;;;;;12.25;4.10;;;21.10;99.90;;;21.24;74.99;104406.78;5042287;28;20029;-77
2021/09/02 07:59:17;;;;;;;17.83;4.50;;;22.80;99.90;;;22.84;63.64;104329.22;5031557;28;20399;-77
2021/09/02 08:01:43;;;;;;;12.07;4.10;;;23.50;99.90;;;22.70;64.82;104221.47;5034872;28;20086;-77
2021/09/02 08:04:10;;;;;;;13.63;4.00;;;23.80;99.90;;;22.71;64.10;104197.22;5040410;28;20044;-77
2021/09/02 08:06:36;;;;;;;17.15;4.38;;;23.70;99.90;;;21.86;64.32;104054.97;5034967;28;20438;-78
2021/09/02 08:09:02;;;;;;;10.40;3.67;;;22.70;99.90;;;20.50;72.08;103956.72;5050391;28;20032;-77
2021/09/02 08:11:29;;;;;;;15.95;4.10;;;22.40;99.90;;;20.88;69.03;103976.72;5039559;28;20110;-77
2021/09/02 08:13:56;;;;;;;17.40;3.88;;;22.60;99.90;;;21.04;67.16;103947.50;5039788;28;20033;-77
2021/09/02 08:16:24;;;;;;;15.18;3.97;;;22.80;99.90;;;22.15;66.31;104060.91;5040527;28;20032;-77
2021/09/02 08:18:52;;;;;;;15.63;4.20;;;23.40;99.90;;;21.83;64.83;103907.56;5044095;28;20132;-78
2021/09/02 08:21:20;;;;;;;10.57;3.92;;;23.20;99.90;;;22.08;65.87;104137.25;5022781;28;20041;-78
2021/09/02 08:23:46;;;;;;;18.23;4.10;;;22.90;99.90;;;20.86;69.07;103854.47;5050001;28;20028;-77
2021/09/02 08:26:12;;;;;;;16.77;4.63;;;22.10;99.90;;;20.05;73.00;103810.38;5049736;28;20028;-77
2021/09/02 08:28:38;;;;;;;12.30;4.25;;;21.80;99.90;;;20.34;71.41;103851.19;5064453;28;20435;-77
2021/09/02 08:31:04;;;;;;;10.55;4.22;;;21.60;99.90;;;20.28;74.13;103830.91;5042139;28;20082;-77
2021/09/02 08:33:30;;;;;;;14.93;4.40;;;21.90;99.90;;;20.88;69.00;103871.38;5024219;28;20032;-77
2021/09/02 08:35:59;;;;;;;12.45;4.25;;;21.60;99.90;;;20.57;71.24;103827.09;5032233;28;20038;-77
2021/09/02 08:38:25;;;;;;;13.93;4.25;;;22.50;99.90;;;22.79;65.42;104007.97;5040466;28;20021;-77
2021/09/02 08:40:51;;;;;;;14.18;4.20;;;24.00;99.90;;;24.57;58.86;104128.31;5042866;28;20024;-77
2021/09/02 08:43:18;;;;;;;14.85;4.70;;;25.30;99.90;;;25.58;56.17;104106.59;5060783;28;20032;-78
2021/09/02 08:45:44;;;;;;;13.45;4.40;;;25.10;99.90;;;23.37;58.66;103888.69;5029250;28;20125;-78
2021/09/02 08:48:10;;;;;;;18.23;4.90;;;24.50;99.90;;;22.92;59.78;103846.09;5026879;28;20531;-77
2021/09/02 08:50:39;;;;;;;15.68;4.30;;;24.10;99.90;;;22.04;62.19;103760.84;5040550;28;20377;-78
2021/09/02 08:53:08;;;;;;;17.10;4.63;;;23.60;99.90;;;22.04;65.34;103768.91;5039514;28;20115;-77
2021/09/02 08:55:37;;;;;;;14.13;4.88;;;23.80;99.90;;;22.73;62.65;103847.97;5049180;28;20056;-76
2021/09/02 08:58:04;;;;;;;15.18;4.65;;;23.70;99.90;;;22.31;64.53;103790.91;5050509;28;20028;-75
2021/09/02 09:00:43;;;;;;;12.52;4.07;;;24.20;99.90;;;22.78;61.92;103819.03;5037965;28;20407;-75
2021/09/02 09:03:36;;;;;;;13.48;4.43;;;23.40;99.90;;;21.31;66.29;103668.56;4980275;28;20462;-76
2021/09/02 09:06:31;;;;;;;16.95;4.43;;;23.50;99.90;;;22.37;65.20;103772.75;5002013;28;20048;-75
2021/09/02 09:09:19;;;;;;;15.07;4.40;;;23.70;99.90;;;22.44;65.23;103801.03;5014183;28;20028;-75
2021/09/02 09:12:00;;;;;;;10.73;3.88;;;23.60;99.90;;;21.73;67.72;103707.78;5000497;28;20067;-76
2021/09/02 09:15:14;;;;;;;16.65;4.13;;;23.60;99.90;;;22.39;63.19;103768.19;4981731;28;20071;-75
2021/09/02 09:18:15;;;;;;;13.98;4.35;;;24.00;99.90;;;22.65;60.12;103781.19;5003756;28;20072;-76
2021/09/02 09:21:29;;;;;;;10.10;3.58;;;24.20;99.90;;;22.46;59.11;103735.59;5023038;28;20119;-76
2021/09/02 09:24:59;;;;;;;9.52;3.80;;;24.00;99.90;;;22.50;63.53;103733.59;5009638;28;20556;-76
2021/09/02 09:27:53;;;;;;;10.35;3.72;;;23.60;99.90;;;22.66;59.02;103747.16;5008612;28;20032;-77
2021/09/02 09:31:14;;;;;;;13.07;3.53;;;23.50;99.90;;;22.54;58.15;103705.66;5006143;28;20185;-76
2021/09/02 09:33:53;;;;;;;17.75;3.90;;;23.70;99.90;;;22.58;59.26;103701.88;5013794;28;20036;-76
2021/09/02 09:36:29;;;;;;;9.18;3.00;;;23.60;99.90;;;23.02;61.19;103730.13;5001572;28;20036;-76
2021/09/02 09:39:29;;;;;;;11.10;3.60;;;23.80;99.90;;;22.77;62.38;103975.81;5009696;28;20044;-76
2021/09/02 09:43:00;;;;;;;14.50;4.28;;;23.80;99.90;;;22.53;63.49;103784.50;5024038;28;20508;-75
2021/09/02 09:46:26;;;;;;;14.00;4.25;;;23.30;99.90;;;21.95;63.94;103709.47;5019569;28;20424;-76
2021/09/02 09:49:03;;;;;;;8.77;3.40;;;23.20;99.90;;;21.97;61.04;103670.03;5015956;28;20511;-76
2021/09/02 09:52:24;;;;;;;13.75;3.88;;;22.70;99.90;;;21.61;63.93;103660.97;5013709;28;20047;-76
2021/09/02 09:55:46;;;;;;;15.57;4.20;;;22.80;99.90;;;21.94;63.05;103857.94;5013301;28;20438;-76
2021/09/02 09:58:14;;;;;;;10.05;3.15;;;23.00;99.90;;;21.78;61.07;103814.84;5012778;28;20048;-76
2021/09/02 10:01:33;;;;;;;15.02;3.53;;;22.70;99.90;;;21.60;64.72;103712.00;4996525;28;20412;-76
2021/09/02 10:04:32;;;;;;;9.38;3.70;;;22.70;99.90;;;21.71;63.30;103712.34;5013761;28;20040;-75
2021/09/02 10:07:37;;;;;;;11.35;3.60;;;22.80;99.90;;;21.84;61.39;103705.47;5015226;28;20560;-76